createdAt,value
2023-03-06T00:02:20.409Z,36.15
2023-03-06T00:04:46.970Z,37.19
2023-03-06T00:07:13.450Z,36.64
2023-03-06T00:09:39.930Z,37.04
2023-03-06T00:12:06.799Z,37.78
2023-03-06T00:14:33.300Z,37.50
2023-03-06T00:16:59.779Z,36.45
2023-03-06T00:19:27.443Z,36.70
2023-03-06T00:21:53.956Z,37.84
2023-03-06T00:24:20.453Z,37.65
2023-03-06T00:26:46.954Z,37.71
2023-03-06T00:29:13.510Z,38.08
2023-03-06T00:31:40.025Z,38.26
2023-03-06T00:34:06.711Z,37.08
2023-03-06T00:36:33.329Z,38.74
2023-03-06T00:38:59.860Z,38.73
2023-03-06T00:41:26.369Z,38.66
2023-03-06T00:43:52.832Z,38.63
2023-03-06T00:46:19.411Z,39.15
2023-03-06T00:48:45.915Z,38.59
2023-03-06T00:51:14.021Z,38.53
2023-03-06T00:53:40.595Z,39.93
2023-03-06T00:56:07.496Z,39.97
2023-03-06T00:58:33.968Z,39.42
2023-03-06T01:01:00.652Z,39.08
2023-03-06T01:03:27.122Z,39.79
2023-03-06T01:05:53.688Z,40.33
2023-03-06T01:08:20.214Z,40.19
2023-03-06T01:10:46.731Z,40.41
2023-03-06T01:13:13.281Z,40.51
2023-03-06T01:15:39.753Z,40.26
2023-03-06T01:18:07.474Z,40.51
2023-03-06T01:20:33.972Z,40.14
2023-03-06T01:23:00.453Z,40.04
2023-03-06T01:25:27.057Z,41.54
2023-03-06T01:27:53.596Z,40.06
2023-03-06T01:30:20.598Z,40.71
2023-03-06T01:32:47.563Z,40.62
2023-03-06T01:35:14.053Z,41.71
2023-03-06T01:37:41.198Z,41.92
2023-03-06T01:40:09.989Z,42.03
2023-03-06T01:42:36.622Z,41.49
2023-03-06T01:45:14.971Z,41.77
2023-03-06T01:47:41.491Z,40.61
2023-03-06T01:50:11.751Z,40.66
2023-03-06T01:52:52.797Z,40.37
2023-03-06T01:55:30.964Z,41.90
2023-03-06T01:58:01.465Z,43.09
2023-03-06T02:00:29.837Z,42.56
2023-03-06T02:03:11.222Z,41.27
2023-03-06T02:05:40.440Z,42.13
2023-03-06T02:08:10.592Z,43.13
2023-03-06T02:10:37.634Z,43.11
2023-03-06T02:13:04.292Z,41.83
2023-03-06T02:15:30.983Z,42.49
2023-03-06T02:17:59.802Z,42.01
2023-03-06T02:20:43.202Z,41.32
2023-03-06T02:23:23.378Z,41.21
2023-03-06T02:25:52.831Z,40.91
2023-03-06T02:28:22.657Z,41.34
2023-03-06T02:30:51.767Z,41.81
2023-03-06T02:33:22.464Z,41.60
2023-03-06T02:36:03.583Z,41.78
2023-03-06T02:38:40.953Z,41.94
2023-03-06T02:41:08.749Z,42.36
2023-03-06T02:43:38.670Z,41.37
2023-03-06T02:46:06.013Z,41.78
2023-03-06T02:48:32.897Z,42.48
2023-03-06T02:50:59.463Z,42.15
2023-03-06T02:53:26.400Z,41.45
2023-03-06T02:55:52.944Z,41.58
2023-03-06T02:58:19.481Z,41.56
2023-03-06T03:00:47.734Z,41.05
2023-03-06T03:03:14.347Z,41.43
2023-03-06T03:05:41.038Z,40.85
2023-03-06T03:08:07.679Z,41.22
2023-03-06T03:10:34.212Z,42.30
2023-03-06T03:13:00.710Z,41.36
2023-03-06T03:15:28.857Z,42.23
2023-03-06T03:17:55.363Z,42.49
2023-03-06T03:20:22.700Z,42.18
2023-03-06T03:22:55.062Z,42.38
2023-03-06T03:25:23.571Z,41.85
2023-03-06T03:27:50.709Z,41.46
2023-03-06T03:30:17.586Z,42.38
2023-03-06T03:32:44.230Z,42.57
2023-03-06T03:35:11.589Z,41.85
2023-03-06T03:37:38.515Z,41.65
2023-03-06T03:40:05.605Z,42.29
2023-03-06T03:42:32.151Z,43.69
2023-03-06T03:44:58.650Z,42.13
2023-03-06T03:47:25.274Z,42.43
2023-03-06T03:49:51.766Z,42.98
2023-03-06T03:52:18.288Z,42.35
2023-03-06T03:54:44.821Z,43.51
2023-03-06T03:57:11.453Z,42.81
2023-03-06T03:59:37.969Z,42.71
2023-03-06T04:02:04.516Z,43.52
2023-03-06T04:04:31.089Z,41.99
2023-03-06T04:06:57.692Z,43.38
2023-03-06T04:09:24.326Z,43.52
2023-03-06T04:11:50.848Z,43.56
2023-03-06T04:14:17.320Z,42.84
2023-03-06T04:16:43.795Z,43.02
2023-03-06T04:19:10.323Z,43.11
2023-03-06T04:21:36.860Z,42.98
2023-03-06T04:24:03.689Z,43.73
2023-03-06T04:26:30.198Z,43.83
2023-03-06T04:28:56.741Z,43.69
2023-03-06T04:31:23.368Z,44.84
2023-03-06T04:33:49.938Z,44.73
2023-03-06T04:36:30.039Z,44.34
2023-03-06T04:38:56.943Z,44.58
2023-03-06T04:41:23.818Z,44.61
2023-03-06T04:43:50.661Z,43.51
2023-03-06T04:46:17.232Z,43.71
2023-03-06T04:48:47.656Z,43.62
2023-03-06T04:51:15.294Z,44.25
2023-03-06T04:53:41.835Z,44.35
2023-03-06T04:56:08.614Z,44.22
2023-03-06T04:58:35.189Z,44.00
2023-03-06T05:01:01.921Z,44.25
2023-03-06T05:03:28.440Z,44.44
2023-03-06T05:05:54.956Z,44.96
2023-03-06T05:08:21.646Z,45.27
2023-03-06T05:10:55.351Z,44.71
2023-03-06T05:13:22.013Z,43.45
2023-03-06T05:15:48.510Z,43.27
2023-03-06T05:18:15.304Z,43.70
2023-03-06T05:20:41.829Z,45.21
2023-03-06T05:23:08.461Z,44.61
2023-03-06T05:25:34.954Z,44.60
2023-03-06T05:28:01.477Z,45.50
2023-03-06T05:30:27.950Z,44.95
2023-03-06T05:32:54.501Z,45.44
2023-03-06T05:35:22.910Z,44.38
2023-03-06T05:37:50.266Z,44.55
2023-03-06T05:40:19.811Z,44.93
2023-03-06T05:42:46.413Z,45.42
2023-03-06T05:45:14.139Z,46.40
2023-03-06T05:47:43.158Z,46.50
2023-03-06T05:50:10.731Z,45.43
2023-03-06T05:52:38.570Z,45.48
2023-03-06T05:55:05.520Z,45.34
2023-03-06T05:57:32.010Z,44.87
2023-03-06T05:59:58.472Z,45.68
2023-03-06T06:02:25.055Z,45.39
2023-03-06T06:04:51.555Z,44.93
2023-03-06T06:07:18.151Z,45.98
2023-03-06T06:09:44.986Z,45.15
2023-03-06T06:12:12.006Z,44.72
2023-03-06T06:14:38.506Z,45.14
2023-03-06T06:17:05.020Z,45.96
2023-03-06T06:19:31.771Z,46.45
2023-03-06T06:21:58.874Z,46.19
2023-03-06T06:24:26.267Z,46.16
2023-03-06T06:26:54.929Z,45.78
2023-03-06T06:29:23.091Z,45.82
2023-03-06T06:31:49.979Z,46.36
2023-03-06T06:34:17.816Z,45.35
2023-03-06T06:36:44.444Z,45.82
2023-03-06T06:39:15.284Z,44.89
2023-03-06T06:41:59.466Z,45.86
2023-03-06T06:44:28.379Z,47.17
2023-03-06T06:49:41.464Z,47.76
2023-03-06T06:52:07.986Z,46.77
2023-03-06T06:54:34.853Z,47.53
2023-03-06T06:57:01.654Z,47.86
2023-03-06T06:59:28.154Z,47.88
2023-03-06T07:01:54.649Z,48.05
2023-03-06T07:04:21.236Z,48.48
2023-03-06T07:06:47.876Z,47.96
2023-03-06T07:09:14.546Z,47.27
2023-03-06T07:11:41.860Z,46.73
2023-03-06T07:14:08.688Z,47.86
2023-03-06T07:16:35.403Z,48.04
2023-03-06T07:19:02.403Z,48.46
2023-03-06T07:21:29.057Z,48.94
2023-03-06T07:23:56.110Z,47.51
2023-03-06T07:26:23.636Z,47.74
2023-03-06T07:28:52.860Z,47.87
2023-03-06T07:31:21.806Z,48.83
2023-03-06T07:33:49.590Z,48.29
2023-03-06T07:36:16.298Z,47.70
2023-03-06T07:38:42.831Z,48.08
2023-03-06T07:41:09.971Z,49.05
2023-03-06T07:43:36.567Z,45.83
2023-03-06T07:46:03.087Z,44.59
2023-03-06T07:48:30.611Z,43.92
2023-03-06T07:51:07.326Z,43.75
2023-03-06T07:53:35.426Z,44.51
2023-03-06T07:56:04.672Z,43.08
2023-03-06T07:58:33.375Z,45.13
2023-03-06T08:01:07.416Z,44.26
2023-03-06T08:03:34.389Z,45.27
2023-03-06T08:06:27.188Z,45.49
2023-03-06T08:08:55.470Z,45.53
2023-03-06T08:11:25.451Z,44.77
2023-03-06T08:13:52.240Z,46.75
2023-03-06T08:16:23.688Z,46.54
2023-03-06T08:18:50.891Z,47.41
2023-03-06T08:21:20.981Z,46.07
2023-03-06T08:23:48.090Z,46.05
2023-03-06T08:26:21.595Z,44.79
2023-03-06T08:28:48.352Z,46.30
2023-03-06T08:31:24.360Z,45.75
2023-03-06T08:33:51.048Z,47.52
2023-03-06T08:36:17.563Z,47.28
2023-03-06T08:38:44.126Z,47.73
2023-03-06T08:41:10.701Z,45.42
2023-03-06T08:43:37.182Z,45.79
2023-03-06T08:46:03.995Z,45.46
2023-03-06T08:48:30.861Z,44.32
2023-03-06T08:50:57.508Z,44.23
2023-03-06T08:53:33.439Z,44.70
2023-03-06T08:56:35.966Z,44.59
2023-03-06T08:59:05.124Z,44.20
2023-03-06T09:01:35.271Z,45.19
2023-03-06T09:04:05.746Z,44.39
2023-03-06T09:06:35.684Z,44.79
2023-03-06T09:09:02.469Z,44.66
2023-03-06T09:11:29.150Z,44.11
2023-03-06T09:13:57.233Z,44.52
2023-03-06T09:16:25.031Z,44.12
2023-03-06T09:18:51.744Z,44.68
2023-03-06T09:21:20.075Z,44.62
2023-03-06T09:23:46.609Z,44.90
2023-03-06T09:26:13.201Z,45.25
2023-03-06T09:28:40.751Z,44.61
2023-03-06T09:31:12.083Z,44.16
2023-03-06T09:33:39.226Z,43.32
2023-03-06T09:36:08.140Z,42.52
2023-03-06T09:38:35.239Z,42.42
2023-03-06T09:41:14.760Z,42.80
2023-03-06T09:43:47.022Z,42.82
2023-03-06T09:46:32.449Z,42.79
2023-03-06T09:49:32.856Z,43.88
2023-03-06T09:52:02.294Z,41.91
2023-03-06T09:54:53.841Z,43.17
2023-03-06T09:57:28.906Z,43.00
2023-03-06T10:00:04.506Z,42.58
2023-03-06T10:02:40.646Z,41.48
2023-03-06T10:05:16.251Z,42.33
2023-03-06T10:07:49.014Z,42.26
2023-03-06T10:10:26.673Z,41.82
2023-03-06T10:13:00.400Z,41.12
2023-03-06T10:15:34.659Z,41.75
2023-03-06T10:18:03.003Z,42.17
2023-03-06T10:20:41.052Z,42.18
2023-03-06T10:23:42.258Z,41.98
2023-03-06T10:26:21.114Z,41.75
2023-03-06T10:29:17.003Z,41.00
2023-03-06T10:31:50.831Z,41.57
2023-03-06T10:34:23.088Z,42.08
2023-03-06T10:36:50.204Z,41.56
2023-03-06T10:39:22.346Z,41.74
2023-03-06T10:41:50.101Z,41.45
2023-03-06T10:44:21.602Z,41.40
2023-03-06T10:46:51.096Z,41.25
2023-03-06T10:49:25.619Z,39.34
2023-03-06T10:52:21.605Z,40.33
2023-03-06T10:54:48.138Z,40.61
2023-03-06T10:57:32.165Z,39.83
2023-03-06T11:00:02.774Z,40.24
2023-03-06T11:02:31.015Z,40.36
2023-03-06T11:05:00.461Z,40.31
2023-03-06T11:07:35.135Z,40.53
2023-03-06T11:10:17.316Z,40.93
2023-03-06T11:13:05.307Z,41.13
2023-03-06T11:15:31.872Z,40.27
2023-03-06T11:18:26.562Z,39.66
2023-03-06T11:20:55.390Z,39.03
2023-03-06T11:23:29.410Z,40.85
2023-03-06T11:26:24.157Z,40.64
2023-03-06T11:29:00.920Z,40.10
2023-03-06T11:31:35.011Z,37.61
2023-03-06T11:34:18.424Z,38.23
2023-03-06T11:37:09.070Z,39.06
2023-03-06T11:39:48.699Z,37.42
2023-03-06T11:42:37.535Z,36.26
2023-03-06T11:45:25.927Z,35.61
2023-03-06T11:48:08.944Z,32.49
2023-03-06T11:50:44.672Z,33.61
2023-03-06T11:53:18.454Z,33.22
2023-03-06T11:56:09.188Z,32.54
2023-03-06T11:59:05.060Z,33.77
2023-03-06T12:01:49.966Z,35.13
2023-03-06T12:04:25.537Z,36.08
2023-03-06T12:06:52.023Z,36.34
2023-03-06T12:09:30.512Z,35.15
2023-03-06T12:12:18.386Z,35.93
2023-03-06T12:15:19.297Z,36.62
2023-03-06T12:17:57.590Z,35.15
2023-03-06T12:21:05.037Z,35.35
2023-03-06T12:24:02.698Z,34.60
2023-03-06T12:26:54.858Z,32.31
2023-03-06T12:29:52.095Z,32.28
2023-03-06T12:32:31.746Z,30.94
2023-03-06T12:35:25.473Z,32.21
2023-03-06T12:38:18.789Z,32.36
2023-03-06T12:41:16.393Z,33.55
2023-03-06T12:43:45.827Z,33.16
2023-03-06T12:46:20.301Z,32.22
2023-03-06T12:49:23.201Z,29.45
2023-03-06T12:51:59.359Z,31.54
2023-03-06T12:54:30.936Z,29.44
2023-03-06T12:57:00.507Z,29.06
2023-03-06T12:59:37.485Z,28.75
2023-03-06T13:02:31.003Z,31.23
2023-03-06T13:05:03.594Z,30.93
2023-03-06T13:07:50.093Z,29.52
2023-03-06T13:10:31.749Z,29.38
2023-03-06T13:13:01.314Z,29.82
2023-03-06T13:16:30.594Z,29.84
2023-03-06T13:19:19.533Z,30.25
2023-03-06T13:21:54.860Z,30.52
2023-03-06T13:24:23.783Z,29.07
2023-03-06T13:26:54.957Z,29.52
2023-03-06T13:29:36.723Z,28.42
2023-03-06T13:32:03.471Z,27.09
2023-03-06T13:34:32.944Z,26.72
2023-03-06T13:37:17.900Z,28.04
2023-03-06T13:39:56.286Z,28.07
2023-03-06T13:42:31.573Z,28.47
2023-03-06T13:45:08.120Z,29.68
2023-03-06T13:47:55.761Z,28.25
2023-03-06T13:50:38.856Z,26.77
2023-03-06T13:53:25.745Z,26.49
2023-03-06T13:56:08.683Z,25.03
2023-03-06T13:58:49.843Z,23.37
2023-03-06T14:01:40.283Z,21.75
2023-03-06T14:04:29.472Z,21.20
2023-03-06T14:06:58.994Z,21.23
2023-03-06T14:09:41.143Z,19.92
2023-03-06T14:12:24.392Z,18.77
2023-03-06T14:14:56.783Z,19.01
2023-03-06T14:17:33.015Z,18.02
2023-03-06T14:20:18.234Z,18.89
2023-03-06T14:22:44.747Z,18.67
2023-03-06T14:25:29.926Z,19.75
2023-03-06T14:28:02.977Z,19.79
2023-03-06T14:30:35.689Z,19.42
2023-03-06T14:33:10.762Z,19.17
2023-03-06T14:35:37.948Z,19.21
2023-03-06T14:38:06.400Z,17.53
2023-03-06T14:40:42.920Z,19.98
2023-03-06T14:43:28.008Z,19.51
2023-03-06T14:45:57.373Z,20.28
2023-03-06T14:48:35.945Z,19.22
2023-03-06T14:51:02.492Z,19.95
2023-03-06T14:53:33.268Z,17.65
2023-03-06T14:56:07.590Z,17.98
2023-03-06T14:58:53.692Z,18.54
2023-03-06T15:01:36.563Z,19.27
2023-03-06T15:04:35.391Z,18.21
2023-03-06T15:07:11.201Z,17.88
2023-03-06T15:09:38.857Z,17.66
2023-03-06T15:12:20.430Z,17.95
2023-03-06T15:14:57.031Z,17.38
2023-03-06T15:17:29.246Z,17.17
2023-03-06T15:19:59.268Z,17.45
2023-03-06T15:22:36.088Z,17.45
2023-03-06T15:25:24.154Z,16.89
2023-03-06T15:27:52.394Z,16.87
2023-03-06T15:30:31.452Z,16.19
2023-03-06T15:33:22.556Z,17.03
2023-03-06T15:35:59.197Z,17.89
2023-03-06T15:38:46.191Z,17.94
2023-03-06T15:41:34.317Z,17.96
2023-03-06T15:44:03.670Z,16.55
2023-03-06T15:46:30.182Z,15.19
2023-03-06T15:48:57.892Z,15.17
2023-03-06T15:51:25.337Z,17.47
2023-03-06T15:53:54.989Z,16.61
2023-03-06T15:56:31.946Z,16.20
2023-03-06T15:59:01.136Z,15.95
2023-03-06T16:01:30.314Z,15.71
2023-03-06T16:03:57.733Z,15.38
2023-03-06T16:06:24.767Z,14.45
2023-03-06T16:08:53.118Z,14.19
2023-03-06T16:11:35.319Z,13.67
2023-03-06T16:14:17.152Z,13.15
2023-03-06T16:16:43.667Z,13.24
2023-03-06T16:19:25.369Z,12.56
2023-03-06T16:21:52.742Z,12.46
2023-03-06T16:24:19.261Z,11.85
2023-03-06T16:26:48.995Z,12.29
2023-03-06T16:29:21.852Z,12.95
2023-03-06T16:31:48.589Z,13.47
2023-03-06T16:34:16.123Z,14.23
2023-03-06T16:36:42.663Z,14.15
2023-03-06T16:39:21.114Z,13.83
2023-03-06T16:41:47.850Z,14.26
2023-03-06T16:44:14.659Z,14.19
2023-03-06T16:46:43.989Z,13.86
2023-03-06T16:49:16.655Z,12.79
2023-03-06T16:51:44.075Z,12.24
2023-03-06T16:54:10.967Z,12.12
2023-03-06T16:56:37.440Z,12.25
2023-03-06T16:59:03.955Z,12.77
2023-03-06T17:01:30.582Z,12.00
2023-03-06T17:03:58.209Z,11.58
2023-03-06T17:06:24.688Z,11.22
2023-03-06T17:08:54.599Z,11.19
2023-03-06T17:11:22.429Z,11.65
2023-03-06T17:13:49.188Z,11.70
2023-03-06T17:16:16.366Z,11.92
2023-03-06T17:18:45.202Z,11.63
2023-03-06T17:21:13.903Z,12.22
2023-03-06T17:23:40.425Z,12.37
2023-03-06T17:26:10.319Z,11.87
2023-03-06T17:28:38.323Z,12.28
2023-03-06T17:31:19.801Z,12.19
2023-03-06T17:33:47.219Z,12.38
2023-03-06T17:36:15.906Z,12.03
2023-03-06T17:38:43.098Z,12.47
2023-03-06T17:41:12.024Z,11.70
2023-03-06T17:43:39.298Z,11.66
2023-03-06T17:46:11.351Z,11.86
2023-03-06T17:48:38.896Z,11.70
2023-03-06T17:51:05.844Z,11.49
2023-03-06T17:53:33.237Z,11.35
2023-03-06T17:55:59.739Z,13.06
2023-03-06T17:58:27.279Z,13.86
2023-03-06T18:00:54.298Z,13.62
2023-03-06T18:03:20.861Z,14.53
2023-03-06T18:06:01.980Z,14.11
2023-03-06T18:08:28.535Z,13.69
2023-03-06T18:11:02.346Z,13.45
2023-03-06T18:13:28.843Z,14.32
2023-03-06T18:15:55.379Z,14.31
2023-03-06T18:18:22.638Z,13.95
2023-03-06T18:20:49.127Z,13.84
2023-03-06T18:23:15.732Z,13.18
2023-03-06T18:25:42.868Z,12.86
2023-03-06T18:28:09.470Z,13.46
2023-03-06T18:30:38.241Z,12.96
2023-03-06T18:33:05.142Z,13.00
2023-03-06T18:35:33.514Z,11.37
2023-03-06T18:38:00.874Z,11.02
2023-03-06T18:40:27.400Z,11.05
2023-03-06T18:42:54.341Z,11.43
2023-03-06T18:45:21.357Z,12.75
2023-03-06T18:47:47.886Z,13.24
2023-03-06T18:50:14.386Z,13.47
2023-03-06T18:52:40.858Z,13.56
2023-03-06T18:55:07.567Z,14.25
2023-03-06T18:57:34.138Z,14.84
2023-03-06T19:00:01.095Z,13.90
2023-03-06T19:02:27.643Z,13.93
2023-03-06T19:04:54.116Z,13.33
2023-03-06T19:07:20.609Z,14.41
2023-03-06T19:09:50.226Z,13.78
2023-03-06T19:12:16.897Z,12.86
2023-03-06T19:14:44.405Z,13.37
2023-03-06T19:17:10.924Z,13.49
2023-03-06T19:19:37.458Z,13.68
2023-03-06T19:22:03.966Z,13.08
2023-03-06T19:24:30.624Z,13.01
2023-03-06T19:26:57.171Z,12.43
2023-03-06T19:29:23.660Z,12.92
2023-03-06T19:31:50.250Z,13.95
2023-03-06T19:34:16.776Z,14.28
2023-03-06T19:36:43.244Z,14.20
2023-03-06T19:39:12.578Z,14.12
2023-03-06T19:41:39.063Z,14.29
2023-03-06T19:44:05.571Z,13.74
2023-03-06T19:46:32.764Z,13.97
2023-03-06T19:49:02.103Z,14.07
2023-03-06T19:51:29.325Z,14.80
2023-03-06T19:53:56.894Z,14.83
2023-03-06T19:56:26.952Z,15.03
2023-03-06T19:58:53.804Z,14.61
2023-03-06T20:01:22.443Z,14.82
2023-03-06T20:03:49.188Z,15.37
2023-03-06T20:06:18.317Z,15.18
2023-03-06T20:08:46.440Z,14.31
2023-03-06T20:11:25.521Z,14.55
2023-03-06T20:13:52.638Z,14.96
2023-03-06T20:16:19.667Z,15.07
2023-03-06T20:18:46.463Z,16.22
2023-03-06T20:21:14.195Z,15.00
2023-03-06T20:23:41.303Z,14.97
2023-03-06T20:26:10.959Z,14.93
2023-03-06T20:28:39.356Z,14.91
2023-03-06T20:31:11.767Z,15.80
2023-03-06T20:33:38.432Z,15.22
2023-03-06T20:36:13.925Z,15.27
2023-03-06T20:38:43.451Z,15.19
2023-03-06T20:41:24.029Z,15.66
2023-03-06T20:43:51.492Z,15.05
2023-03-06T20:46:19.742Z,15.14
2023-03-06T20:48:49.086Z,16.05
2023-03-06T20:51:19.901Z,15.89
2023-03-06T20:53:48.308Z,15.50
2023-03-06T20:56:17.334Z,15.37
2023-03-06T20:58:44.055Z,15.42
2023-03-06T21:01:28.199Z,15.18
2023-03-06T21:03:58.286Z,15.80
2023-03-06T21:06:28.953Z,15.91
2023-03-06T21:08:59.999Z,15.60
2023-03-06T21:11:26.936Z,16.53
2023-03-06T21:13:54.758Z,16.47
2023-03-06T21:16:24.268Z,16.32
2023-03-06T21:18:51.723Z,16.25
2023-03-06T21:21:20.559Z,16.22
2023-03-06T21:23:48.901Z,16.22
2023-03-06T21:26:18.816Z,16.26
2023-03-06T21:28:45.708Z,16.12
2023-03-06T21:31:14.066Z,15.53
2023-03-06T21:33:41.084Z,15.65
2023-03-06T21:36:07.841Z,16.10
2023-03-06T21:38:35.129Z,16.09
2023-03-06T21:41:17.913Z,17.18
2023-03-06T21:43:44.722Z,16.90
2023-03-06T21:46:11.981Z,18.57
2023-03-06T21:48:41.578Z,19.86
2023-03-06T21:51:14.616Z,20.90
2023-03-06T21:53:46.005Z,19.39
2023-03-06T21:56:14.783Z,20.56
2023-03-06T21:58:41.439Z,20.87
2023-03-06T22:01:13.006Z,19.82
2023-03-06T22:03:39.916Z,19.05
2023-03-06T22:06:13.312Z,17.20
2023-03-06T22:08:40.572Z,17.37
2023-03-06T22:11:27.018Z,16.62
2023-03-06T22:13:53.681Z,17.46
2023-03-06T22:16:20.317Z,16.88
2023-03-06T22:18:49.972Z,18.14
2023-03-06T22:21:19.306Z,17.41
2023-03-06T22:23:50.639Z,17.49
2023-03-06T22:26:20.173Z,16.88
2023-03-06T22:28:46.849Z,15.80
2023-03-06T22:31:16.137Z,16.20
2023-03-06T22:33:52.145Z,16.20
2023-03-06T22:36:21.656Z,15.98
2023-03-06T22:38:52.804Z,15.84
2023-03-06T22:41:19.343Z,16.23
2023-03-06T22:43:45.983Z,15.91
2023-03-06T22:46:17.236Z,15.96
2023-03-06T22:48:44.946Z,15.37
2023-03-06T22:51:17.925Z,15.52
2023-03-06T22:53:45.255Z,15.91
2023-03-06T22:56:15.401Z,15.43
2023-03-06T22:58:42.024Z,15.24
2023-03-06T23:01:12.076Z,15.57
2023-03-06T23:03:43.581Z,15.24
2023-03-06T23:06:13.663Z,15.43
2023-03-06T23:08:40.828Z,15.14
2023-03-06T23:11:13.511Z,15.36
2023-03-06T23:13:40.028Z,15.06
2023-03-06T23:16:08.883Z,15.15
2023-03-06T23:18:37.448Z,14.64
2023-03-06T23:21:12.069Z,15.32
2023-03-06T23:23:39.471Z,15.05
2023-03-06T23:26:07.756Z,15.35
2023-03-06T23:28:34.428Z,14.94
2023-03-06T23:31:13.650Z,14.86
2023-03-06T23:33:40.261Z,15.09
2023-03-06T23:36:12.277Z,14.71
2023-03-06T23:38:39.813Z,14.84
2023-03-06T23:41:13.917Z,15.33
2023-03-06T23:43:40.492Z,15.34
2023-03-06T23:46:07.147Z,15.88
2023-03-06T23:48:35.415Z,14.85
2023-03-06T23:51:09.852Z,14.37
2023-03-06T23:53:36.347Z,14.66
2023-03-06T23:56:05.760Z,14.81
2023-03-06T23:58:32.562Z,14.86
